sensor_id;sensor_type;location;lat;lon;timestamp;P1;durP1;ratioP1;P2;durP2;ratioP2
37545;SDS011;23389;52.484;13.572;2023-04-01T00:00:14;6.18;;;2.40;;
37545;SDS011;23389;52.484;13.572;2023-04-01T00:02:40;6.07;;;2.30;;
37545;SDS011;23389;52.484;13.572;2023-04-01T00:05:05;5.55;;;2.38;;
37545;SDS011;23389;52.484;13.572;2023-04-01T00:07:30;5.80;;;2.35;;
37545;SDS011;23389;52.484;13.572;2023-04-01T00:09:56;5.43;;;2.33;;
37545;SDS011;23389;52.484;13.572;2023-04-01T00:12:21;5.40;;;2.88;;
37545;SDS011;23389;52.484;13.572;2023-04-01T00:14:46;7.70;;;2.85;;
37545;SDS011;23389;52.484;13.572;2023-04-01T00:17:11;5.72;;;3.20;;
37545;SDS011;23389;52.484;13.572;2023-04-01T00:19:37;7.07;;;2.55;;
37545;SDS011;23389;52.484;13.572;2023-04-01T00:22:02;7.43;;;3.00;;
37545;SDS011;23389;52.484;13.572;2023-04-01T00:24:27;7.25;;;3.17;;
37545;SDS011;23389;52.484;13.572;2023-04-01T00:26:53;6.00;;;2.97;;
37545;SDS011;23389;52.484;13.572;2023-04-01T00:29:18;5.93;;;2.73;;
37545;SDS011;23389;52.484;13.572;2023-04-01T00:31:43;7.90;;;2.90;;
37545;SDS011;23389;52.484;13.572;2023-04-01T00:34:08;6.20;;;3.15;;
37545;SDS011;23389;52.484;13.572;2023-04-01T00:36:33;6.40;;;3.40;;
37545;SDS011;23389;52.484;13.572;2023-04-01T00:38:58;6.00;;;2.58;;
37545;SDS011;23389;52.484;13.572;2023-04-01T00:41:24;6.63;;;3.40;;
37545;SDS011;23389;52.484;13.572;2023-04-01T00:43:51;7.35;;;2.92;;
37545;SDS011;23389;52.484;13.572;2023-04-01T00:46:16;6.18;;;3.17;;
37545;SDS011;23389;52.484;13.572;2023-04-01T00:48:42;6.45;;;3.08;;
37545;SDS011;23389;52.484;13.572;2023-04-01T00:51:14;6.55;;;3.00;;
37545;SDS011;23389;52.484;13.572;2023-04-01T00:53:44;5.30;;;2.97;;
37545;SDS011;23389;52.484;13.572;2023-04-01T00:58:36;8.60;;;3.65;;
37545;SDS011;23389;52.484;13.572;2023-04-01T01:01:03;6.07;;;3.20;;
37545;SDS011;23389;52.484;13.572;2023-04-01T01:03:28;5.68;;;3.10;;
37545;SDS011;23389;52.484;13.572;2023-04-01T01:05:58;5.75;;;3.08;;
37545;SDS011;23389;52.484;13.572;2023-04-01T01:11:01;7.03;;;3.58;;
37545;SDS011;23389;52.484;13.572;2023-04-01T01:13:30;6.03;;;3.17;;
37545;SDS011;23389;52.484;13.572;2023-04-01T01:16:00;7.43;;;3.65;;
37545;SDS011;23389;52.484;13.572;2023-04-01T01:18:49;5.55;;;3.13;;
37545;SDS011;23389;52.484;13.572;2023-04-01T01:21:26;7.32;;;3.15;;
37545;SDS011;23389;52.484;13.572;2023-04-01T01:32:32;6.53;;;3.13;;
37545;SDS011;23389;52.484;13.572;2023-04-01T01:35:14;6.60;;;3.60;;
37545;SDS011;23389;52.484;13.572;2023-04-01T01:37:41;5.20;;;3.17;;
37545;SDS011;23389;52.484;13.572;2023-04-01T01:40:09;6.90;;;2.90;;
37545;SDS011;23389;52.484;13.572;2023-04-01T01:42:36;7.05;;;3.38;;
37545;SDS011;23389;52.484;13.572;2023-04-01T01:45:02;7.72;;;3.38;;
37545;SDS011;23389;52.484;13.572;2023-04-01T01:47:28;6.70;;;3.80;;
37545;SDS011;23389;52.484;13.572;2023-04-01T01:49:54;7.47;;;3.75;;
37545;SDS011;23389;52.484;13.572;2023-04-01T01:52:21;8.07;;;3.05;;
37545;SDS011;23389;52.484;13.572;2023-04-01T01:54:47;6.78;;;3.50;;
37545;SDS011;23389;52.484;13.572;2023-04-01T01:57:12;6.25;;;3.40;;
37545;SDS011;23389;52.484;13.572;2023-04-01T01:59:38;6.50;;;3.42;;
37545;SDS011;23389;52.484;13.572;2023-04-01T02:02:04;8.00;;;3.88;;
37545;SDS011;23389;52.484;13.572;2023-04-01T02:04:34;7.70;;;4.93;;
37545;SDS011;23389;52.484;13.572;2023-04-01T02:07:00;7.45;;;4.03;;
37545;SDS011;23389;52.484;13.572;2023-04-01T02:09:27;6.72;;;4.00;;
37545;SDS011;23389;52.484;13.572;2023-04-01T02:11:53;8.45;;;4.78;;
37545;SDS011;23389;52.484;13.572;2023-04-01T02:14:22;9.93;;;4.97;;
37545;SDS011;23389;52.484;13.572;2023-04-01T02:16:53;6.38;;;4.38;;
37545;SDS011;23389;52.484;13.572;2023-04-01T02:19:20;7.40;;;4.15;;
37545;SDS011;23389;52.484;13.572;2023-04-01T02:21:48;9.88;;;5.70;;
37545;SDS011;23389;52.484;13.572;2023-04-01T02:24:14;9.35;;;5.38;;
37545;SDS011;23389;52.484;13.572;2023-04-01T02:26:40;7.60;;;4.88;;
37545;SDS011;23389;52.484;13.572;2023-04-01T02:29:05;9.40;;;5.10;;
37545;SDS011;23389;52.484;13.572;2023-04-01T02:31:33;7.32;;;4.47;;
37545;SDS011;23389;52.484;13.572;2023-04-01T02:33:58;6.50;;;4.13;;
37545;SDS011;23389;52.484;13.572;2023-04-01T02:36:24;9.15;;;5.22;;
37545;SDS011;23389;52.484;13.572;2023-04-01T02:38:49;7.03;;;4.33;;
37545;SDS011;23389;52.484;13.572;2023-04-01T02:41:15;7.03;;;4.40;;
37545;SDS011;23389;52.484;13.572;2023-04-01T02:43:40;10.00;;;5.07;;
37545;SDS011;23389;52.484;13.572;2023-04-01T02:46:06;8.88;;;5.40;;
37545;SDS011;23389;52.484;13.572;2023-04-01T02:48:31;9.80;;;5.40;;
37545;SDS011;23389;52.484;13.572;2023-04-01T02:50:56;7.60;;;5.28;;
37545;SDS011;23389;52.484;13.572;2023-04-01T02:53:21;8.13;;;5.00;;
37545;SDS011;23389;52.484;13.572;2023-04-01T02:55:47;10.88;;;5.43;;
37545;SDS011;23389;52.484;13.572;2023-04-01T02:58:15;8.23;;;4.95;;
37545;SDS011;23389;52.484;13.572;2023-04-01T03:00:40;8.00;;;5.03;;
37545;SDS011;23389;52.484;13.572;2023-04-01T03:03:05;7.93;;;5.18;;
37545;SDS011;23389;52.484;13.572;2023-04-01T03:05:30;9.67;;;5.10;;
37545;SDS011;23389;52.484;13.572;2023-04-01T03:07:55;9.50;;;5.35;;
37545;SDS011;23389;52.484;13.572;2023-04-01T03:10:20;7.70;;;5.10;;
37545;SDS011;23389;52.484;13.572;2023-04-01T03:12:45;9.57;;;5.57;;
37545;SDS011;23389;52.484;13.572;2023-04-01T03:15:11;8.07;;;5.40;;
37545;SDS011;23389;52.484;13.572;2023-04-01T03:17:38;9.23;;;5.53;;
37545;SDS011;23389;52.484;13.572;2023-04-01T03:20:03;8.30;;;5.40;;
37545;SDS011;23389;52.484;13.572;2023-04-01T03:22:29;9.85;;;5.97;;
37545;SDS011;23389;52.484;13.572;2023-04-01T03:24:54;8.55;;;5.75;;
37545;SDS011;23389;52.484;13.572;2023-04-01T03:27:20;8.60;;;5.70;;
37545;SDS011;23389;52.484;13.572;2023-04-01T03:29:45;9.73;;;5.88;;
37545;SDS011;23389;52.484;13.572;2023-04-01T03:32:10;10.37;;;6.30;;
37545;SDS011;23389;52.484;13.572;2023-04-01T03:34:35;10.73;;;6.63;;
37545;SDS011;23389;52.484;13.572;2023-04-01T03:37:01;9.18;;;5.70;;
37545;SDS011;23389;52.484;13.572;2023-04-01T03:39:26;11.23;;;5.85;;
37545;SDS011;23389;52.484;13.572;2023-04-01T03:41:51;9.25;;;6.20;;
37545;SDS011;23389;52.484;13.572;2023-04-01T03:44:16;8.77;;;6.10;;
37545;SDS011;23389;52.484;13.572;2023-04-01T03:46:41;9.73;;;6.67;;
37545;SDS011;23389;52.484;13.572;2023-04-01T03:49:07;11.07;;;6.72;;
37545;SDS011;23389;52.484;13.572;2023-04-01T03:51:37;9.80;;;6.43;;
37545;SDS011;23389;52.484;13.572;2023-04-01T03:54:02;10.70;;;6.85;;
37545;SDS011;23389;52.484;13.572;2023-04-01T03:56:27;9.45;;;6.15;;
37545;SDS011;23389;52.484;13.572;2023-04-01T03:58:52;9.82;;;6.45;;
37545;SDS011;23389;52.484;13.572;2023-04-01T04:01:18;10.63;;;6.85;;
37545;SDS011;23389;52.484;13.572;2023-04-01T04:03:45;9.27;;;6.68;;
37545;SDS011;23389;52.484;13.572;2023-04-01T04:06:11;12.88;;;7.10;;
37545;SDS011;23389;52.484;13.572;2023-04-01T04:08:36;12.10;;;7.43;;
37545;SDS011;23389;52.484;13.572;2023-04-01T04:11:01;10.65;;;7.05;;
37545;SDS011;23389;52.484;13.572;2023-04-01T04:13:26;12.52;;;8.43;;
37545;SDS011;23389;52.484;13.572;2023-04-01T04:15:52;9.50;;;7.17;;
37545;SDS011;23389;52.484;13.572;2023-04-01T04:18:17;11.60;;;7.47;;
37545;SDS011;23389;52.484;13.572;2023-04-01T04:20:45;11.15;;;7.82;;
37545;SDS011;23389;52.484;13.572;2023-04-01T04:23:13;10.80;;;7.63;;
37545;SDS011;23389;52.484;13.572;2023-04-01T04:25:38;12.77;;;7.90;;
37545;SDS011;23389;52.484;13.572;2023-04-01T04:28:03;12.50;;;7.43;;
37545;SDS011;23389;52.484;13.572;2023-04-01T04:30:28;12.10;;;8.63;;
37545;SDS011;23389;52.484;13.572;2023-04-01T04:32:53;11.98;;;7.80;;
37545;SDS011;23389;52.484;13.572;2023-04-01T04:35:19;13.32;;;7.65;;
37545;SDS011;23389;52.484;13.572;2023-04-01T04:37:44;14.98;;;7.68;;
37545;SDS011;23389;52.484;13.572;2023-04-01T04:40:09;12.68;;;7.65;;
37545;SDS011;23389;52.484;13.572;2023-04-01T04:42:34;12.77;;;7.68;;
37545;SDS011;23389;52.484;13.572;2023-04-01T04:44:59;13.45;;;7.57;;
37545;SDS011;23389;52.484;13.572;2023-04-01T04:47:24;11.25;;;6.57;;
37545;SDS011;23389;52.484;13.572;2023-04-01T04:49:50;12.98;;;7.38;;
37545;SDS011;23389;52.484;13.572;2023-04-01T04:52:15;10.75;;;6.85;;
37545;SDS011;23389;52.484;13.572;2023-04-01T04:54:40;11.68;;;6.78;;
37545;SDS011;23389;52.484;13.572;2023-04-01T04:57:05;11.07;;;7.30;;
37545;SDS011;23389;52.484;13.572;2023-04-01T04:59:31;9.07;;;6.10;;
37545;SDS011;23389;52.484;13.572;2023-04-01T05:01:56;9.25;;;5.93;;
37545;SDS011;23389;52.484;13.572;2023-04-01T05:04:21;11.80;;;7.32;;
37545;SDS011;23389;52.484;13.572;2023-04-01T05:06:46;11.30;;;6.70;;
37545;SDS011;23389;52.484;13.572;2023-04-01T05:09:11;12.70;;;8.02;;
37545;SDS011;23389;52.484;13.572;2023-04-01T05:11:36;10.43;;;6.17;;
37545;SDS011;23389;52.484;13.572;2023-04-01T05:14:02;10.05;;;6.45;;
37545;SDS011;23389;52.484;13.572;2023-04-01T05:16:27;9.07;;;6.37;;
37545;SDS011;23389;52.484;13.572;2023-04-01T05:18:52;9.73;;;5.80;;
37545;SDS011;23389;52.484;13.572;2023-04-01T05:21:17;9.60;;;5.80;;
37545;SDS011;23389;52.484;13.572;2023-04-01T05:23:42;12.18;;;5.90;;
37545;SDS011;23389;52.484;13.572;2023-04-01T05:26:09;11.07;;;5.70;;
37545;SDS011;23389;52.484;13.572;2023-04-01T05:28:35;9.57;;;5.55;;
37545;SDS011;23389;52.484;13.572;2023-04-01T05:31:00;9.30;;;5.18;;
37545;SDS011;23389;52.484;13.572;2023-04-01T05:33:26;10.38;;;5.20;;
37545;SDS011;23389;52.484;13.572;2023-04-01T05:35:51;11.40;;;4.70;;
37545;SDS011;23389;52.484;13.572;2023-04-01T05:38:16;12.13;;;5.93;;
37545;SDS011;23389;52.484;13.572;2023-04-01T05:40:41;10.35;;;5.70;;
37545;SDS011;23389;52.484;13.572;2023-04-01T05:43:06;8.95;;;5.22;;
37545;SDS011;23389;52.484;13.572;2023-04-01T05:45:31;9.25;;;5.22;;
37545;SDS011;23389;52.484;13.572;2023-04-01T05:47:56;10.45;;;5.55;;
37545;SDS011;23389;52.484;13.572;2023-04-01T05:50:21;7.72;;;4.60;;
37545;SDS011;23389;52.484;13.572;2023-04-01T05:52:47;7.70;;;4.82;;
37545;SDS011;23389;52.484;13.572;2023-04-01T05:55:12;9.63;;;4.43;;
37545;SDS011;23389;52.484;13.572;2023-04-01T05:57:37;12.20;;;5.20;;
37545;SDS011;23389;52.484;13.572;2023-04-01T06:00:02;9.35;;;4.82;;
37545;SDS011;23389;52.484;13.572;2023-04-01T06:02:28;10.63;;;5.10;;
37545;SDS011;23389;52.484;13.572;2023-04-01T06:04:54;9.60;;;4.77;;
37545;SDS011;23389;52.484;13.572;2023-04-01T06:07:25;9.02;;;4.47;;
37545;SDS011;23389;52.484;13.572;2023-04-01T06:09:52;8.18;;;4.32;;
37545;SDS011;23389;52.484;13.572;2023-04-01T06:12:23;8.65;;;4.60;;
37545;SDS011;23389;52.484;13.572;2023-04-01T06:17:19;7.32;;;4.75;;
37545;SDS011;23389;52.484;13.572;2023-04-01T06:19:55;11.50;;;5.50;;
37545;SDS011;23389;52.484;13.572;2023-04-01T06:30:10;11.32;;;6.13;;
37545;SDS011;23389;52.484;13.572;2023-04-01T06:32:52;10.57;;;5.53;;
37545;SDS011;23389;52.484;13.572;2023-04-01T06:35:29;11.48;;;5.55;;
37545;SDS011;23389;52.484;13.572;2023-04-01T06:38:02;10.00;;;5.18;;
37545;SDS011;23389;52.484;13.572;2023-04-01T06:40:42;9.75;;;5.85;;
37545;SDS011;23389;52.484;13.572;2023-04-01T06:45:51;11.93;;;5.75;;
37545;SDS011;23389;52.484;13.572;2023-04-01T06:51:07;10.90;;;5.55;;
37545;SDS011;23389;52.484;13.572;2023-04-01T06:56:02;11.15;;;5.68;;
37545;SDS011;23389;52.484;13.572;2023-04-01T06:58:30;12.73;;;5.72;;
37545;SDS011;23389;52.484;13.572;2023-04-01T07:00:58;9.00;;;5.70;;
37545;SDS011;23389;52.484;13.572;2023-04-01T07:03:32;8.85;;;5.30;;
37545;SDS011;23389;52.484;13.572;2023-04-01T07:05:59;13.20;;;6.00;;
37545;SDS011;23389;52.484;13.572;2023-04-01T07:08:26;10.60;;;4.90;;
37545;SDS011;23389;52.484;13.572;2023-04-01T07:10:54;10.73;;;5.55;;
37545;SDS011;23389;52.484;13.572;2023-04-01T07:13:27;11.23;;;4.80;;
37545;SDS011;23389;52.484;13.572;2023-04-01T07:16:08;11.05;;;6.07;;
37545;SDS011;23389;52.484;13.572;2023-04-01T07:21:10;12.02;;;5.60;;
37545;SDS011;23389;52.484;13.572;2023-04-01T07:23:40;13.43;;;5.20;;
37545;SDS011;23389;52.484;13.572;2023-04-01T07:26:20;11.60;;;4.80;;
37545;SDS011;23389;52.484;13.572;2023-04-01T07:28:46;8.82;;;4.55;;
37545;SDS011;23389;52.484;13.572;2023-04-01T07:31:19;9.57;;;4.95;;
37545;SDS011;23389;52.484;13.572;2023-04-01T07:36:33;9.95;;;5.00;;
37545;SDS011;23389;52.484;13.572;2023-04-01T07:44:01;9.95;;;5.38;;
37545;SDS011;23389;52.484;13.572;2023-04-01T07:46:34;8.25;;;5.07;;
37545;SDS011;23389;52.484;13.572;2023-04-01T07:49:07;10.85;;;6.50;;
37545;SDS011;23389;52.484;13.572;2023-04-01T07:59:17;9.85;;;5.22;;
37545;SDS011;23389;52.484;13.572;2023-04-01T08:01:54;9.82;;;4.80;;
37545;SDS011;23389;52.484;13.572;2023-04-01T08:06:50;7.97;;;4.53;;
37545;SDS011;23389;52.484;13.572;2023-04-01T08:11:46;7.43;;;4.60;;
37545;SDS011;23389;52.484;13.572;2023-04-01T08:14:19;7.00;;;3.53;;
37545;SDS011;23389;52.484;13.572;2023-04-01T08:16:53;6.50;;;3.83;;
37545;SDS011;23389;52.484;13.572;2023-04-01T08:19:34;8.30;;;5.38;;
37545;SDS011;23389;52.484;13.572;2023-04-01T08:22:03;8.45;;;5.15;;
37545;SDS011;23389;52.484;13.572;2023-04-01T08:24:37;9.40;;;6.10;;
37545;SDS011;23389;52.484;13.572;2023-04-01T08:27:03;13.23;;;7.65;;
37545;SDS011;23389;52.484;13.572;2023-04-01T08:29:34;12.18;;;7.63;;
37545;SDS011;23389;52.484;13.572;2023-04-01T08:32:11;14.25;;;9.73;;
37545;SDS011;23389;52.484;13.572;2023-04-01T08:34:38;14.43;;;9.55;;
37545;SDS011;23389;52.484;13.572;2023-04-01T08:37:05;15.18;;;9.88;;
37545;SDS011;23389;52.484;13.572;2023-04-01T08:39:38;17.02;;;11.98;;
37545;SDS011;23389;52.484;13.572;2023-04-01T08:42:13;19.25;;;12.35;;
37545;SDS011;23389;52.484;13.572;2023-04-01T08:55:02;18.83;;;13.00;;
37545;SDS011;23389;52.484;13.572;2023-04-01T08:57:45;18.73;;;13.48;;
37545;SDS011;23389;52.484;13.572;2023-04-01T09:08:02;18.10;;;13.35;;
37545;SDS011;23389;52.484;13.572;2023-04-01T09:10:39;16.13;;;12.02;;
37545;SDS011;23389;52.484;13.572;2023-04-01T09:16:03;13.05;;;9.70;;
37545;SDS011;23389;52.484;13.572;2023-04-01T09:18:37;14.30;;;10.25;;
37545;SDS011;23389;52.484;13.572;2023-04-01T09:23:46;12.48;;;9.57;;
37545;SDS011;23389;52.484;13.572;2023-04-01T09:26:17;13.82;;;10.70;;
37545;SDS011;23389;52.484;13.572;2023-04-01T09:31:44;13.30;;;10.63;;
37545;SDS011;23389;52.484;13.572;2023-04-01T09:34:21;13.98;;;10.95;;
37545;SDS011;23389;52.484;13.572;2023-04-01T09:36:55;13.35;;;10.18;;
37545;SDS011;23389;52.484;13.572;2023-04-01T09:39:37;14.27;;;9.70;;
37545;SDS011;23389;52.484;13.572;2023-04-01T09:44:46;11.02;;;9.32;;
37545;SDS011;23389;52.484;13.572;2023-04-01T09:47:21;15.48;;;11.70;;
37545;SDS011;23389;52.484;13.572;2023-04-01T09:52:26;13.95;;;11.05;;
37545;SDS011;23389;52.484;13.572;2023-04-01T09:55:06;14.00;;;11.10;;
37545;SDS011;23389;52.484;13.572;2023-04-01T10:00:16;13.57;;;11.55;;
37545;SDS011;23389;52.484;13.572;2023-04-01T10:05:30;13.00;;;10.75;;
37545;SDS011;23389;52.484;13.572;2023-04-01T10:08:19;14.32;;;11.60;;
37545;SDS011;23389;52.484;13.572;2023-04-01T10:13:33;14.85;;;11.68;;
37545;SDS011;23389;52.484;13.572;2023-04-01T10:16:14;13.10;;;10.57;;
37545;SDS011;23389;52.484;13.572;2023-04-01T10:18:56;12.15;;;10.27;;
37545;SDS011;23389;52.484;13.572;2023-04-01T10:24:16;11.77;;;8.73;;
37545;SDS011;23389;52.484;13.572;2023-04-01T10:29:37;10.25;;;8.00;;
37545;SDS011;23389;52.484;13.572;2023-04-01T10:37:33;11.55;;;8.15;;
37545;SDS011;23389;52.484;13.572;2023-04-01T10:50:25;9.10;;;7.50;;
37545;SDS011;23389;52.484;13.572;2023-04-01T10:58:34;9.40;;;7.57;;
37545;SDS011;23389;52.484;13.572;2023-04-01T11:06:45;7.43;;;5.50;;
37545;SDS011;23389;52.484;13.572;2023-04-01T11:12:09;8.20;;;5.70;;
37545;SDS011;23389;52.484;13.572;2023-04-01T11:14:56;8.35;;;6.20;;
37545;SDS011;23389;52.484;13.572;2023-04-01T11:17:35;7.15;;;5.43;;
37545;SDS011;23389;52.484;13.572;2023-04-01T11:23:08;7.70;;;5.38;;
37545;SDS011;23389;52.484;13.572;2023-04-01T11:25:48;7.18;;;4.82;;
37545;SDS011;23389;52.484;13.572;2023-04-01T11:29:00;7.05;;;4.90;;
37545;SDS011;23389;52.484;13.572;2023-04-01T11:31:04;7.00;;;4.87;;
37545;SDS011;23389;52.484;13.572;2023-04-01T11:33:44;6.38;;;3.97;;
37545;SDS011;23389;52.484;13.572;2023-04-01T11:36:20;7.05;;;3.67;;
37545;SDS011;23389;52.484;13.572;2023-04-01T11:46:47;4.57;;;2.60;;
37545;SDS011;23389;52.484;13.572;2023-04-01T11:55:06;5.07;;;2.63;;
37545;SDS011;23389;52.484;13.572;2023-04-01T11:57:15;5.80;;;3.10;;
37545;SDS011;23389;52.484;13.572;2023-04-01T11:59:46;4.80;;;2.78;;
37545;SDS011;23389;52.484;13.572;2023-04-01T12:05:03;4.63;;;2.47;;
37545;SDS011;23389;52.484;13.572;2023-04-01T12:07:37;5.22;;;2.78;;
37545;SDS011;23389;52.484;13.572;2023-04-01T12:10:17;4.15;;;2.30;;
37545;SDS011;23389;52.484;13.572;2023-04-01T12:15:45;4.75;;;2.50;;
37545;SDS011;23389;52.484;13.572;2023-04-01T12:18:16;3.65;;;2.20;;
37545;SDS011;23389;52.484;13.572;2023-04-01T12:20:47;6.32;;;2.65;;
37545;SDS011;23389;52.484;13.572;2023-04-01T12:23:21;5.28;;;2.67;;
37545;SDS011;23389;52.484;13.572;2023-04-01T12:25:57;4.22;;;2.33;;
37545;SDS011;23389;52.484;13.572;2023-04-01T12:28:41;4.53;;;2.63;;
37545;SDS011;23389;52.484;13.572;2023-04-01T12:36:27;4.70;;;2.42;;
37545;SDS011;23389;52.484;13.572;2023-04-01T12:46:50;5.32;;;2.47;;
37545;SDS011;23389;52.484;13.572;2023-04-01T12:52:13;4.63;;;2.83;;
37545;SDS011;23389;52.484;13.572;2023-04-01T12:54:48;4.68;;;2.58;;
37545;SDS011;23389;52.484;13.572;2023-04-01T12:57:28;6.55;;;3.40;;
37545;SDS011;23389;52.484;13.572;2023-04-01T12:59:59;4.88;;;3.00;;
37545;SDS011;23389;52.484;13.572;2023-04-01T13:12:36;5.47;;;3.10;;
37545;SDS011;23389;52.484;13.572;2023-04-01T13:21:01;7.18;;;3.55;;
37545;SDS011;23389;52.484;13.572;2023-04-01T13:26:05;5.90;;;3.28;;
37545;SDS011;23389;52.484;13.572;2023-04-01T13:31:02;9.32;;;6.68;;
37545;SDS011;23389;52.484;13.572;2023-04-01T13:33:50;10.77;;;8.10;;
37545;SDS011;23389;52.484;13.572;2023-04-01T13:36:19;12.02;;;8.77;;
37545;SDS011;23389;52.484;13.572;2023-04-01T13:39:01;10.75;;;8.57;;
37545;SDS011;23389;52.484;13.572;2023-04-01T13:44:02;10.63;;;7.70;;
37545;SDS011;23389;52.484;13.572;2023-04-01T13:46:39;9.15;;;7.50;;
37545;SDS011;23389;52.484;13.572;2023-04-01T13:54:40;8.82;;;6.82;;
37545;SDS011;23389;52.484;13.572;2023-04-01T13:57:20;9.60;;;7.13;;
37545;SDS011;23389;52.484;13.572;2023-04-01T13:59:58;8.90;;;6.75;;
37545;SDS011;23389;52.484;13.572;2023-04-01T14:05:34;8.55;;;6.40;;
37545;SDS011;23389;52.484;13.572;2023-04-01T14:08:07;9.60;;;6.22;;
37545;SDS011;23389;52.484;13.572;2023-04-01T14:26:01;8.33;;;6.20;;
37545;SDS011;23389;52.484;13.572;2023-04-01T14:33:59;9.48;;;6.18;;
37545;SDS011;23389;52.484;13.572;2023-04-01T14:36:29;10.35;;;6.20;;
37545;SDS011;23389;52.484;13.572;2023-04-01T14:39:11;8.32;;;6.53;;
37545;SDS011;23389;52.484;13.572;2023-04-01T14:42:03;8.60;;;5.88;;
37545;SDS011;23389;52.484;13.572;2023-04-01T14:44:51;8.60;;;6.13;;
37545;SDS011;23389;52.484;13.572;2023-04-01T14:47:34;8.60;;;6.07;;
37545;SDS011;23389;52.484;13.572;2023-04-01T14:50:11;7.90;;;5.53;;
37545;SDS011;23389;52.484;13.572;2023-04-01T14:52:39;8.02;;;5.30;;
37545;SDS011;23389;52.484;13.572;2023-04-01T14:58:04;8.13;;;5.07;;
37545;SDS011;23389;52.484;13.572;2023-04-01T15:00:41;6.88;;;5.10;;
37545;SDS011;23389;52.484;13.572;2023-04-01T15:03:14;8.02;;;5.15;;
37545;SDS011;23389;52.484;13.572;2023-04-01T15:05:47;7.07;;;5.30;;
37545;SDS011;23389;52.484;13.572;2023-04-01T15:08:33;9.85;;;5.13;;
37545;SDS011;23389;52.484;13.572;2023-04-01T15:17:14;7.60;;;5.10;;
37545;SDS011;23389;52.484;13.572;2023-04-01T15:21:50;7.68;;;4.75;;
37545;SDS011;23389;52.484;13.572;2023-04-01T15:32:24;8.43;;;6.03;;
37545;SDS011;23389;52.484;13.572;2023-04-01T15:37:37;9.23;;;5.97;;
37545;SDS011;23389;52.484;13.572;2023-04-01T15:42:48;7.38;;;5.07;;
37545;SDS011;23389;52.484;13.572;2023-04-01T15:45:17;6.93;;;5.03;;
37545;SDS011;23389;52.484;13.572;2023-04-01T15:47:57;7.20;;;4.60;;
37545;SDS011;23389;52.484;13.572;2023-04-01T15:50:30;7.88;;;4.90;;
37545;SDS011;23389;52.484;13.572;2023-04-01T15:55:27;7.13;;;4.07;;
37545;SDS011;23389;52.484;13.572;2023-04-01T16:03:16;7.57;;;4.25;;
37545;SDS011;23389;52.484;13.572;2023-04-01T16:05:55;6.97;;;4.43;;
37545;SDS011;23389;52.484;13.572;2023-04-01T16:08:33;8.30;;;4.70;;
37545;SDS011;23389;52.484;13.572;2023-04-01T16:11:08;8.23;;;5.50;;
37545;SDS011;23389;52.484;13.572;2023-04-01T16:23:50;7.47;;;5.25;;
37545;SDS011;23389;52.484;13.572;2023-04-01T16:26:22;7.97;;;5.72;;
37545;SDS011;23389;52.484;13.572;2023-04-01T16:36:36;8.13;;;6.68;;
37545;SDS011;23389;52.484;13.572;2023-04-01T16:39:11;8.98;;;6.57;;
37545;SDS011;23389;52.484;13.572;2023-04-01T16:41:46;11.52;;;6.50;;
37545;SDS011;23389;52.484;13.572;2023-04-01T16:49:04;9.97;;;7.10;;
37545;SDS011;23389;52.484;13.572;2023-04-01T16:54:35;9.40;;;6.53;;
37545;SDS011;23389;52.484;13.572;2023-04-01T16:57:03;9.48;;;7.75;;
37545;SDS011;23389;52.484;13.572;2023-04-01T16:59:37;8.80;;;7.20;;
37545;SDS011;23389;52.484;13.572;2023-04-01T17:04:32;8.52;;;6.18;;
37545;SDS011;23389;52.484;13.572;2023-04-01T17:07:43;7.83;;;5.73;;
37545;SDS011;23389;52.484;13.572;2023-04-01T17:14:54;10.25;;;6.20;;
37545;SDS011;23389;52.484;13.572;2023-04-01T17:22:21;8.98;;;6.55;;
37545;SDS011;23389;52.484;13.572;2023-04-01T17:27:43;9.07;;;6.55;;
37545;SDS011;23389;52.484;13.572;2023-04-01T17:35:57;9.00;;;6.40;;
37545;SDS011;23389;52.484;13.572;2023-04-01T17:48:53;9.45;;;6.28;;
37545;SDS011;23389;52.484;13.572;2023-04-01T17:54:06;9.20;;;6.47;;
37545;SDS011;23389;52.484;13.572;2023-04-01T17:59:24;9.68;;;6.20;;
37545;SDS011;23389;52.484;13.572;2023-04-01T18:02:05;9.35;;;7.95;;
37545;SDS011;23389;52.484;13.572;2023-04-01T18:04:42;9.05;;;6.18;;
37545;SDS011;23389;52.484;13.572;2023-04-01T18:15:10;12.05;;;7.47;;
37545;SDS011;23389;52.484;13.572;2023-04-01T18:17:40;10.23;;;7.03;;
37545;SDS011;23389;52.484;13.572;2023-04-01T18:25:25;9.48;;;7.38;;
37545;SDS011;23389;52.484;13.572;2023-04-01T18:27:53;9.02;;;5.28;;
37545;SDS011;23389;52.484;13.572;2023-04-01T18:30:22;7.43;;;4.78;;
37545;SDS011;23389;52.484;13.572;2023-04-01T18:33:04;7.85;;;4.47;;
37545;SDS011;23389;52.484;13.572;2023-04-01T18:38:00;7.10;;;4.38;;
37545;SDS011;23389;52.484;13.572;2023-04-01T18:40:35;6.95;;;4.20;;
37545;SDS011;23389;52.484;13.572;2023-04-01T18:45:36;8.55;;;4.70;;
37545;SDS011;23389;52.484;13.572;2023-04-01T18:51:03;7.90;;;5.47;;
37545;SDS011;23389;52.484;13.572;2023-04-01T18:53:35;7.03;;;4.13;;
37545;SDS011;23389;52.484;13.572;2023-04-01T18:56:11;8.15;;;4.78;;
37545;SDS011;23389;52.484;13.572;2023-04-01T18:58:45;8.27;;;4.97;;
37545;SDS011;23389;52.484;13.572;2023-04-01T19:07:17;8.60;;;5.88;;
37545;SDS011;23389;52.484;13.572;2023-04-01T19:09:14;8.88;;;4.70;;
37545;SDS011;23389;52.484;13.572;2023-04-01T19:11:47;8.73;;;5.10;;
37545;SDS011;23389;52.484;13.572;2023-04-01T19:16:55;12.87;;;5.80;;
37545;SDS011;23389;52.484;13.572;2023-04-01T19:19:27;8.93;;;5.03;;
37545;SDS011;23389;52.484;13.572;2023-04-01T19:21:56;10.15;;;5.80;;
37545;SDS011;23389;52.484;13.572;2023-04-01T19:26:48;8.95;;;5.03;;
37545;SDS011;23389;52.484;13.572;2023-04-01T19:32:41;10.18;;;5.43;;
37545;SDS011;23389;52.484;13.572;2023-04-01T19:40:13;11.00;;;6.75;;
37545;SDS011;23389;52.484;13.572;2023-04-01T19:43:02;10.68;;;5.55;;
37545;SDS011;23389;52.484;13.572;2023-04-01T19:48:13;9.20;;;5.72;;
37545;SDS011;23389;52.484;13.572;2023-04-01T19:55:39;10.80;;;6.17;;
37545;SDS011;23389;52.484;13.572;2023-04-01T19:58:19;10.50;;;6.07;;
37545;SDS011;23389;52.484;13.572;2023-04-01T20:00:48;11.18;;;6.80;;
37545;SDS011;23389;52.484;13.572;2023-04-01T20:03:25;11.93;;;6.90;;
37545;SDS011;23389;52.484;13.572;2023-04-01T20:08:43;11.38;;;6.55;;
37545;SDS011;23389;52.484;13.572;2023-04-01T20:13:51;11.98;;;6.38;;
37545;SDS011;23389;52.484;13.572;2023-04-01T20:16:17;12.38;;;6.38;;
37545;SDS011;23389;52.484;13.572;2023-04-01T20:18:56;10.77;;;5.85;;
37545;SDS011;23389;52.484;13.572;2023-04-01T20:21:36;11.55;;;5.95;;
37545;SDS011;23389;52.484;13.572;2023-04-01T20:24:08;11.40;;;5.95;;
37545;SDS011;23389;52.484;13.572;2023-04-01T20:26:43;12.57;;;5.80;;
37545;SDS011;23389;52.484;13.572;2023-04-01T20:31:42;10.00;;;6.22;;
37545;SDS011;23389;52.484;13.572;2023-04-01T20:34:12;12.32;;;7.40;;
37545;SDS011;23389;52.484;13.572;2023-04-01T20:36:44;14.32;;;7.85;;
37545;SDS011;23389;52.484;13.572;2023-04-01T20:47:10;12.85;;;6.88;;
37545;SDS011;23389;52.484;13.572;2023-04-01T20:54:43;12.43;;;6.95;;
37545;SDS011;23389;52.484;13.572;2023-04-01T20:57:23;14.93;;;7.30;;
37545;SDS011;23389;52.484;13.572;2023-04-01T21:00:02;13.98;;;7.15;;
37545;SDS011;23389;52.484;13.572;2023-04-01T21:02:34;12.93;;;7.07;;
37545;SDS011;23389;52.484;13.572;2023-04-01T21:07:43;13.55;;;6.90;;
37545;SDS011;23389;52.484;13.572;2023-04-01T21:10:19;12.00;;;7.07;;
37545;SDS011;23389;52.484;13.572;2023-04-01T21:15:35;12.90;;;7.38;;